sensor_id;sensor_type;location;lat;lon;timestamp;P1;durP1;ratioP1;P2;durP2;ratioP2
56331;SDS011;42237;53.340;6.812;2022-12-19T00:00:41;26.90;;;15.93;;
56331;SDS011;42237;53.340;6.812;2022-12-19T00:03:06;29.58;;;16.35;;
56331;SDS011;42237;53.340;6.812;2022-12-19T00:05:35;30.38;;;17.02;;
56331;SDS011;42237;53.340;6.812;2022-12-19T00:08:02;30.20;;;16.83;;
56331;SDS011;42237;53.340;6.812;2022-12-19T00:10:27;30.10;;;15.90;;
56331;SDS011;42237;53.340;6.812;2022-12-19T00:12:53;30.42;;;16.40;;
56331;SDS011;42237;53.340;6.812;2022-12-19T00:15:19;29.13;;;16.30;;
56331;SDS011;42237;53.340;6.812;2022-12-19T00:17:44;29.23;;;16.85;;
56331;SDS011;42237;53.340;6.812;2022-12-19T00:20:10;31.10;;;16.10;;
56331;SDS011;42237;53.340;6.812;2022-12-19T00:22:36;30.85;;;18.40;;
56331;SDS011;42237;53.340;6.812;2022-12-19T00:25:01;31.23;;;17.58;;
56331;SDS011;42237;53.340;6.812;2022-12-19T00:27:27;33.45;;;17.92;;
56331;SDS011;42237;53.340;6.812;2022-12-19T00:29:53;30.00;;;17.60;;
56331;SDS011;42237;53.340;6.812;2022-12-19T00:32:18;32.00;;;18.58;;
56331;SDS011;42237;53.340;6.812;2022-12-19T00:34:44;34.92;;;18.15;;
56331;SDS011;42237;53.340;6.812;2022-12-19T00:37:10;37.58;;;18.92;;
56331;SDS011;42237;53.340;6.812;2022-12-19T00:39:35;34.97;;;17.45;;
56331;SDS011;42237;53.340;6.812;2022-12-19T00:42:01;32.33;;;19.30;;
56331;SDS011;42237;53.340;6.812;2022-12-19T00:44:27;35.83;;;19.63;;
56331;SDS011;42237;53.340;6.812;2022-12-19T00:46:52;34.90;;;19.23;;
56331;SDS011;42237;53.340;6.812;2022-12-19T00:49:19;42.90;;;21.95;;
56331;SDS011;42237;53.340;6.812;2022-12-19T00:51:45;35.45;;;21.23;;
56331;SDS011;42237;53.340;6.812;2022-12-19T00:54:10;37.50;;;20.05;;
56331;SDS011;42237;53.340;6.812;2022-12-19T00:56:36;35.70;;;20.48;;
56331;SDS011;42237;53.340;6.812;2022-12-19T00:59:02;36.60;;;20.02;;
56331;SDS011;42237;53.340;6.812;2022-12-19T01:01:32;40.20;;;21.48;;
56331;SDS011;42237;53.340;6.812;2022-12-19T01:03:59;36.55;;;21.58;;
56331;SDS011;42237;53.340;6.812;2022-12-19T01:06:29;39.30;;;20.83;;
56331;SDS011;42237;53.340;6.812;2022-12-19T01:08:55;35.50;;;20.08;;
56331;SDS011;42237;53.340;6.812;2022-12-19T01:11:21;34.53;;;18.15;;
56331;SDS011;42237;53.340;6.812;2022-12-19T01:16:32;34.00;;;17.50;;
56331;SDS011;42237;53.340;6.812;2022-12-19T01:18:58;32.88;;;19.00;;
56331;SDS011;42237;53.340;6.812;2022-12-19T01:21:24;35.40;;;18.02;;
56331;SDS011;42237;53.340;6.812;2022-12-19T01:23:49;32.53;;;17.45;;
56331;SDS011;42237;53.340;6.812;2022-12-19T01:26:15;33.38;;;18.42;;
56331;SDS011;42237;53.340;6.812;2022-12-19T01:28:40;32.70;;;18.25;;
56331;SDS011;42237;53.340;6.812;2022-12-19T01:31:06;31.05;;;17.92;;
56331;SDS011;42237;53.340;6.812;2022-12-19T01:33:32;32.15;;;17.80;;
56331;SDS011;42237;53.340;6.812;2022-12-19T01:35:57;33.92;;;19.15;;
56331;SDS011;42237;53.340;6.812;2022-12-19T01:38:25;37.92;;;18.83;;
56331;SDS011;42237;53.340;6.812;2022-12-19T01:40:55;34.67;;;18.65;;
56331;SDS011;42237;53.340;6.812;2022-12-19T01:43:21;35.47;;;20.02;;
56331;SDS011;42237;53.340;6.812;2022-12-19T01:45:49;36.88;;;20.27;;
56331;SDS011;42237;53.340;6.812;2022-12-19T01:48:29;36.08;;;20.70;;
56331;SDS011;42237;53.340;6.812;2022-12-19T01:51:06;35.58;;;19.13;;
56331;SDS011;42237;53.340;6.812;2022-12-19T01:53:37;36.30;;;19.65;;
56331;SDS011;42237;53.340;6.812;2022-12-19T01:56:15;34.97;;;18.73;;
56331;SDS011;42237;53.340;6.812;2022-12-19T01:58:44;37.45;;;19.55;;
56331;SDS011;42237;53.340;6.812;2022-12-19T02:01:14;33.95;;;20.38;;
56331;SDS011;42237;53.340;6.812;2022-12-19T02:03:41;34.42;;;19.67;;
56331;SDS011;42237;53.340;6.812;2022-12-19T02:06:09;38.67;;;21.05;;
56331;SDS011;42237;53.340;6.812;2022-12-19T02:08:37;36.58;;;20.10;;
56331;SDS011;42237;53.340;6.812;2022-12-19T02:11:05;33.20;;;20.15;;
56331;SDS011;42237;53.340;6.812;2022-12-19T02:13:30;35.10;;;20.85;;
56331;SDS011;42237;53.340;6.812;2022-12-19T02:18:48;36.55;;;20.08;;
56331;SDS011;42237;53.340;6.812;2022-12-19T02:21:44;33.72;;;19.92;;
56331;SDS011;42237;53.340;6.812;2022-12-19T02:27:39;38.80;;;20.55;;
56331;SDS011;42237;53.340;6.812;2022-12-19T02:35:40;32.67;;;19.70;;
56331;SDS011;42237;53.340;6.812;2022-12-19T02:38:21;39.95;;;20.20;;
56331;SDS011;42237;53.340;6.812;2022-12-19T02:41:13;34.85;;;20.50;;
56331;SDS011;42237;53.340;6.812;2022-12-19T02:43:46;38.95;;;20.90;;
56331;SDS011;42237;53.340;6.812;2022-12-19T02:46:15;42.35;;;20.27;;
56331;SDS011;42237;53.340;6.812;2022-12-19T02:48:42;41.97;;;21.63;;
56331;SDS011;42237;53.340;6.812;2022-12-19T02:51:08;41.35;;;22.92;;
56331;SDS011;42237;53.340;6.812;2022-12-19T02:53:34;40.40;;;20.45;;
56331;SDS011;42237;53.340;6.812;2022-12-19T02:56:24;36.72;;;19.75;;
56331;SDS011;42237;53.340;6.812;2022-12-19T02:59:13;37.10;;;20.27;;
56331;SDS011;42237;53.340;6.812;2022-12-19T03:02:03;39.00;;;21.52;;
56331;SDS011;42237;53.340;6.812;2022-12-19T03:10:16;41.08;;;21.75;;
56331;SDS011;42237;53.340;6.812;2022-12-19T03:12:52;46.47;;;22.27;;
56331;SDS011;42237;53.340;6.812;2022-12-19T03:15:25;38.05;;;20.30;;
56331;SDS011;42237;53.340;6.812;2022-12-19T03:17:51;40.42;;;22.23;;
56331;SDS011;42237;53.340;6.812;2022-12-19T03:20:24;37.88;;;20.90;;
56331;SDS011;42237;53.340;6.812;2022-12-19T03:22:57;39.47;;;22.10;;
56331;SDS011;42237;53.340;6.812;2022-12-19T03:25:23;44.88;;;22.92;;
56331;SDS011;42237;53.340;6.812;2022-12-19T03:27:50;43.85;;;20.90;;
56331;SDS011;42237;53.340;6.812;2022-12-19T03:30:17;41.35;;;22.45;;
56331;SDS011;42237;53.340;6.812;2022-12-19T03:32:42;43.75;;;22.67;;
56331;SDS011;42237;53.340;6.812;2022-12-19T03:35:21;40.15;;;21.98;;
56331;SDS011;42237;53.340;6.812;2022-12-19T03:37:50;46.42;;;22.35;;
56331;SDS011;42237;53.340;6.812;2022-12-19T03:40:20;47.42;;;24.10;;
56331;SDS011;42237;53.340;6.812;2022-12-19T03:42:48;44.60;;;22.73;;
56331;SDS011;42237;53.340;6.812;2022-12-19T03:45:51;41.35;;;22.80;;
56331;SDS011;42237;53.340;6.812;2022-12-19T03:48:24;43.70;;;22.10;;
56331;SDS011;42237;53.340;6.812;2022-12-19T03:51:00;47.42;;;23.95;;
56331;SDS011;42237;53.340;6.812;2022-12-19T03:56:39;49.92;;;24.00;;
56331;SDS011;42237;53.340;6.812;2022-12-19T03:59:11;48.53;;;24.55;;
56331;SDS011;42237;53.340;6.812;2022-12-19T04:02:05;46.95;;;24.48;;
56331;SDS011;42237;53.340;6.812;2022-12-19T04:04:36;50.45;;;24.20;;
56331;SDS011;42237;53.340;6.812;2022-12-19T04:07:05;45.97;;;25.00;;
56331;SDS011;42237;53.340;6.812;2022-12-19T04:09:32;44.17;;;24.13;;
56331;SDS011;42237;53.340;6.812;2022-12-19T04:12:02;42.72;;;22.73;;
56331;SDS011;42237;53.340;6.812;2022-12-19T04:14:33;43.15;;;22.95;;
56331;SDS011;42237;53.340;6.812;2022-12-19T04:17:19;40.20;;;20.65;;
56331;SDS011;42237;53.340;6.812;2022-12-19T04:25:32;45.17;;;22.80;;
56331;SDS011;42237;53.340;6.812;2022-12-19T04:28:06;43.83;;;24.42;;
56331;SDS011;42237;53.340;6.812;2022-12-19T04:30:41;47.13;;;24.60;;
56331;SDS011;42237;53.340;6.812;2022-12-19T04:33:09;48.97;;;25.42;;
56331;SDS011;42237;53.340;6.812;2022-12-19T04:35:34;48.97;;;24.75;;
56331;SDS011;42237;53.340;6.812;2022-12-19T04:38:01;42.45;;;23.88;;
56331;SDS011;42237;53.340;6.812;2022-12-19T04:40:26;54.40;;;24.75;;
56331;SDS011;42237;53.340;6.812;2022-12-19T04:42:52;46.55;;;23.98;;
56331;SDS011;42237;53.340;6.812;2022-12-19T04:45:18;51.78;;;26.05;;
56331;SDS011;42237;53.340;6.812;2022-12-19T04:47:43;47.10;;;25.58;;
56331;SDS011;42237;53.340;6.812;2022-12-19T04:50:09;44.83;;;23.60;;
56331;SDS011;42237;53.340;6.812;2022-12-19T04:52:36;50.90;;;28.02;;
56331;SDS011;42237;53.340;6.812;2022-12-19T04:55:02;48.65;;;24.13;;
56331;SDS011;42237;53.340;6.812;2022-12-19T04:57:31;52.08;;;26.35;;
56331;SDS011;42237;53.340;6.812;2022-12-19T04:59:56;59.72;;;25.83;;
56331;SDS011;42237;53.340;6.812;2022-12-19T05:02:22;54.25;;;26.92;;
56331;SDS011;42237;53.340;6.812;2022-12-19T05:04:49;53.13;;;26.55;;
56331;SDS011;42237;53.340;6.812;2022-12-19T05:07:15;52.38;;;27.00;;
56331;SDS011;42237;53.340;6.812;2022-12-19T05:09:41;52.47;;;27.05;;
56331;SDS011;42237;53.340;6.812;2022-12-19T05:12:07;58.17;;;28.83;;
56331;SDS011;42237;53.340;6.812;2022-12-19T05:14:34;48.35;;;25.20;;
56331;SDS011;42237;53.340;6.812;2022-12-19T05:17:00;55.13;;;27.17;;
56331;SDS011;42237;53.340;6.812;2022-12-19T05:19:25;48.80;;;26.02;;
56331;SDS011;42237;53.340;6.812;2022-12-19T05:21:51;58.22;;;28.88;;
56331;SDS011;42237;53.340;6.812;2022-12-19T05:24:17;53.85;;;26.02;;
56331;SDS011;42237;53.340;6.812;2022-12-19T05:26:42;54.95;;;26.77;;
56331;SDS011;42237;53.340;6.812;2022-12-19T05:29:08;52.00;;;26.27;;
56331;SDS011;42237;53.340;6.812;2022-12-19T05:31:34;52.05;;;25.17;;
56331;SDS011;42237;53.340;6.812;2022-12-19T05:33:59;56.45;;;27.20;;
56331;SDS011;42237;53.340;6.812;2022-12-19T05:36:25;46.10;;;24.65;;
56331;SDS011;42237;53.340;6.812;2022-12-19T05:38:51;52.47;;;26.08;;
56331;SDS011;42237;53.340;6.812;2022-12-19T05:41:17;51.15;;;25.17;;
56331;SDS011;42237;53.340;6.812;2022-12-19T05:43:44;51.10;;;24.80;;
56331;SDS011;42237;53.340;6.812;2022-12-19T05:46:13;51.22;;;25.48;;
56331;SDS011;42237;53.340;6.812;2022-12-19T05:48:39;48.20;;;24.85;;
56331;SDS011;42237;53.340;6.812;2022-12-19T05:51:05;47.55;;;25.40;;
56331;SDS011;42237;53.340;6.812;2022-12-19T05:53:30;52.88;;;27.83;;
56331;SDS011;42237;53.340;6.812;2022-12-19T05:56:08;55.42;;;26.77;;
56331;SDS011;42237;53.340;6.812;2022-12-19T05:58:36;54.17;;;27.75;;
56331;SDS011;42237;53.340;6.812;2022-12-19T06:01:04;60.28;;;28.42;;
56331;SDS011;42237;53.340;6.812;2022-12-19T06:03:31;66.82;;;32.90;;
56331;SDS011;42237;53.340;6.812;2022-12-19T06:05:58;55.47;;;29.42;;
56331;SDS011;42237;53.340;6.812;2022-12-19T06:08:27;51.22;;;26.85;;
56331;SDS011;42237;53.340;6.812;2022-12-19T06:10:53;55.75;;;29.63;;
56331;SDS011;42237;53.340;6.812;2022-12-19T06:13:19;57.53;;;28.42;;
56331;SDS011;42237;53.340;6.812;2022-12-19T06:15:44;50.60;;;27.73;;
56331;SDS011;42237;53.340;6.812;2022-12-19T06:18:10;54.38;;;30.75;;
56331;SDS011;42237;53.340;6.812;2022-12-19T06:20:36;49.75;;;29.00;;
56331;SDS011;42237;53.340;6.812;2022-12-19T06:23:01;57.38;;;28.70;;
56331;SDS011;42237;53.340;6.812;2022-12-19T06:25:27;48.58;;;28.10;;
56331;SDS011;42237;53.340;6.812;2022-12-19T06:27:53;50.83;;;26.70;;
56331;SDS011;42237;53.340;6.812;2022-12-19T06:30:18;49.78;;;28.00;;
56331;SDS011;42237;53.340;6.812;2022-12-19T06:32:44;44.75;;;25.70;;
56331;SDS011;42237;53.340;6.812;2022-12-19T06:35:10;44.35;;;23.48;;
56331;SDS011;42237;53.340;6.812;2022-12-19T06:37:35;48.70;;;27.40;;
56331;SDS011;42237;53.340;6.812;2022-12-19T06:40:01;44.58;;;24.75;;
56331;SDS011;42237;53.340;6.812;2022-12-19T06:42:27;38.55;;;24.23;;
56331;SDS011;42237;53.340;6.812;2022-12-19T06:44:53;40.13;;;22.33;;
56331;SDS011;42237;53.340;6.812;2022-12-19T06:47:20;38.25;;;21.50;;
56331;SDS011;42237;53.340;6.812;2022-12-19T06:49:46;40.58;;;21.40;;
56331;SDS011;42237;53.340;6.812;2022-12-19T06:52:13;40.65;;;22.88;;
56331;SDS011;42237;53.340;6.812;2022-12-19T06:54:39;41.25;;;24.08;;
56331;SDS011;42237;53.340;6.812;2022-12-19T06:57:05;44.08;;;27.33;;
56331;SDS011;42237;53.340;6.812;2022-12-19T06:59:32;45.85;;;24.40;;
56331;SDS011;42237;53.340;6.812;2022-12-19T07:04:57;38.47;;;21.23;;
56331;SDS011;42237;53.340;6.812;2022-12-19T07:07:27;33.67;;;20.25;;
56331;SDS011;42237;53.340;6.812;2022-12-19T07:09:53;37.95;;;20.98;;
56331;SDS011;42237;53.340;6.812;2022-12-19T07:12:18;41.90;;;21.15;;
56331;SDS011;42237;53.340;6.812;2022-12-19T07:14:44;36.40;;;23.70;;
56331;SDS011;42237;53.340;6.812;2022-12-19T07:17:10;35.75;;;19.98;;
56331;SDS011;42237;53.340;6.812;2022-12-19T07:19:37;32.33;;;18.77;;
56331;SDS011;42237;53.340;6.812;2022-12-19T07:22:03;38.08;;;25.08;;
56331;SDS011;42237;53.340;6.812;2022-12-19T07:24:29;35.10;;;20.63;;
56331;SDS011;42237;53.340;6.812;2022-12-19T07:26:56;31.58;;;20.30;;
56331;SDS011;42237;53.340;6.812;2022-12-19T07:29:22;32.20;;;20.92;;
56331;SDS011;42237;53.340;6.812;2022-12-19T07:31:48;29.77;;;17.67;;
56331;SDS011;42237;53.340;6.812;2022-12-19T07:34:13;32.97;;;19.23;;
56331;SDS011;42237;53.340;6.812;2022-12-19T07:36:39;33.72;;;20.55;;
56331;SDS011;42237;53.340;6.812;2022-12-19T07:39:05;26.92;;;17.50;;
56331;SDS011;42237;53.340;6.812;2022-12-19T07:41:30;35.40;;;22.25;;
56331;SDS011;42237;53.340;6.812;2022-12-19T07:43:56;30.17;;;18.25;;
56331;SDS011;42237;53.340;6.812;2022-12-19T07:46:22;34.45;;;22.10;;
56331;SDS011;42237;53.340;6.812;2022-12-19T07:48:47;36.40;;;20.10;;
56331;SDS011;42237;53.340;6.812;2022-12-19T07:51:13;27.33;;;17.42;;
56331;SDS011;42237;53.340;6.812;2022-12-19T07:53:38;28.60;;;20.27;;
56331;SDS011;42237;53.340;6.812;2022-12-19T07:56:04;32.58;;;21.60;;
56331;SDS011;42237;53.340;6.812;2022-12-19T07:58:30;31.08;;;17.63;;
56331;SDS011;42237;53.340;6.812;2022-12-19T08:00:56;28.25;;;19.90;;
56331;SDS011;42237;53.340;6.812;2022-12-19T08:03:24;27.38;;;17.55;;
56331;SDS011;42237;53.340;6.812;2022-12-19T08:05:50;26.38;;;17.10;;
56331;SDS011;42237;53.340;6.812;2022-12-19T08:08:16;31.60;;;18.25;;
56331;SDS011;42237;53.340;6.812;2022-12-19T08:10:42;30.75;;;19.83;;
56331;SDS011;42237;53.340;6.812;2022-12-19T08:13:07;26.70;;;18.65;;
56331;SDS011;42237;53.340;6.812;2022-12-19T08:15:33;25.15;;;17.65;;
56331;SDS011;42237;53.340;6.812;2022-12-19T08:17:59;28.55;;;19.77;;
56331;SDS011;42237;53.340;6.812;2022-12-19T08:20:26;27.85;;;19.02;;
56331;SDS011;42237;53.340;6.812;2022-12-19T08:22:52;28.83;;;18.45;;
56331;SDS011;42237;53.340;6.812;2022-12-19T08:25:18;25.52;;;16.30;;
56331;SDS011;42237;53.340;6.812;2022-12-19T08:27:43;25.90;;;18.05;;
56331;SDS011;42237;53.340;6.812;2022-12-19T08:30:09;28.13;;;18.55;;
56331;SDS011;42237;53.340;6.812;2022-12-19T08:32:37;25.38;;;17.67;;
56331;SDS011;42237;53.340;6.812;2022-12-19T08:35:04;21.83;;;16.08;;
56331;SDS011;42237;53.340;6.812;2022-12-19T08:37:31;24.00;;;15.27;;
56331;SDS011;42237;53.340;6.812;2022-12-19T08:39:56;24.20;;;17.67;;
56331;SDS011;42237;53.340;6.812;2022-12-19T08:42:22;28.15;;;17.83;;
56331;SDS011;42237;53.340;6.812;2022-12-19T08:44:48;22.40;;;14.73;;
56331;SDS011;42237;53.340;6.812;2022-12-19T08:47:13;27.13;;;17.77;;
56331;SDS011;42237;53.340;6.812;2022-12-19T08:49:39;28.70;;;18.90;;
56331;SDS011;42237;53.340;6.812;2022-12-19T08:52:05;24.42;;;17.30;;
56331;SDS011;42237;53.340;6.812;2022-12-19T08:54:30;22.08;;;15.05;;
56331;SDS011;42237;53.340;6.812;2022-12-19T08:56:56;21.65;;;16.30;;
56331;SDS011;42237;53.340;6.812;2022-12-19T08:59:22;25.90;;;17.58;;
56331;SDS011;42237;53.340;6.812;2022-12-19T09:01:48;24.48;;;17.15;;
56331;SDS011;42237;53.340;6.812;2022-12-19T09:04:13;23.35;;;15.57;;
56331;SDS011;42237;53.340;6.812;2022-12-19T09:06:39;21.30;;;15.25;;
56331;SDS011;42237;53.340;6.812;2022-12-19T09:09:06;24.80;;;15.75;;
56331;SDS011;42237;53.340;6.812;2022-12-19T09:11:31;20.95;;;15.43;;
56331;SDS011;42237;53.340;6.812;2022-12-19T09:13:57;23.58;;;16.35;;
56331;SDS011;42237;53.340;6.812;2022-12-19T09:16:24;21.92;;;15.80;;
56331;SDS011;42237;53.340;6.812;2022-12-19T09:18:52;20.75;;;15.10;;
56331;SDS011;42237;53.340;6.812;2022-12-19T09:21:20;20.15;;;14.63;;
56331;SDS011;42237;53.340;6.812;2022-12-19T09:23:51;19.98;;;14.80;;
56331;SDS011;42237;53.340;6.812;2022-12-19T09:26:19;24.38;;;16.50;;
56331;SDS011;42237;53.340;6.812;2022-12-19T09:28:47;21.63;;;15.60;;
56331;SDS011;42237;53.340;6.812;2022-12-19T09:31:14;20.23;;;15.45;;
56331;SDS011;42237;53.340;6.812;2022-12-19T09:33:48;22.45;;;15.95;;
56331;SDS011;42237;53.340;6.812;2022-12-19T09:36:16;20.83;;;14.77;;
56331;SDS011;42237;53.340;6.812;2022-12-19T09:38:43;19.90;;;14.80;;
56331;SDS011;42237;53.340;6.812;2022-12-19T09:46:54;22.73;;;16.02;;
56331;SDS011;42237;53.340;6.812;2022-12-19T09:49:35;19.40;;;15.27;;
56331;SDS011;42237;53.340;6.812;2022-12-19T09:52:06;23.02;;;16.55;;
56331;SDS011;42237;53.340;6.812;2022-12-19T09:54:41;21.67;;;16.67;;
56331;SDS011;42237;53.340;6.812;2022-12-19T09:57:15;24.50;;;17.70;;
56331;SDS011;42237;53.340;6.812;2022-12-19T10:00:03;23.92;;;17.48;;
56331;SDS011;42237;53.340;6.812;2022-12-19T10:05:42;23.63;;;18.10;;
56331;SDS011;42237;53.340;6.812;2022-12-19T10:08:33;24.05;;;17.77;;
56331;SDS011;42237;53.340;6.812;2022-12-19T10:25:08;27.02;;;18.35;;
56331;SDS011;42237;53.340;6.812;2022-12-19T10:30:23;24.52;;;19.05;;
56331;SDS011;42237;53.340;6.812;2022-12-19T10:35:20;24.15;;;17.60;;
56331;SDS011;42237;53.340;6.812;2022-12-19T10:37:50;21.63;;;16.92;;
56331;SDS011;42237;53.340;6.812;2022-12-19T10:42:58;25.70;;;19.35;;
56331;SDS011;42237;53.340;6.812;2022-12-19T10:45:48;23.13;;;17.83;;
56331;SDS011;42237;53.340;6.812;2022-12-19T10:48:17;24.10;;;17.30;;
56331;SDS011;42237;53.340;6.812;2022-12-19T10:50:46;21.20;;;16.95;;
56331;SDS011;42237;53.340;6.812;2022-12-19T10:53:12;20.83;;;16.80;;
56331;SDS011;42237;53.340;6.812;2022-12-19T10:55:45;22.65;;;17.92;;
56331;SDS011;42237;53.340;6.812;2022-12-19T10:58:33;23.50;;;17.55;;
56331;SDS011;42237;53.340;6.812;2022-12-19T11:03:35;22.85;;;16.90;;
56331;SDS011;42237;53.340;6.812;2022-12-19T11:06:05;22.42;;;17.65;;
56331;SDS011;42237;53.340;6.812;2022-12-19T11:08:54;23.10;;;17.20;;
56331;SDS011;42237;53.340;6.812;2022-12-19T11:11:58;23.50;;;18.10;;
56331;SDS011;42237;53.340;6.812;2022-12-19T11:14:34;23.38;;;18.05;;
56331;SDS011;42237;53.340;6.812;2022-12-19T11:17:02;24.17;;;18.10;;
56331;SDS011;42237;53.340;6.812;2022-12-19T11:22:09;21.65;;;17.35;;
56331;SDS011;42237;53.340;6.812;2022-12-19T11:24:45;26.67;;;16.60;;
56331;SDS011;42237;53.340;6.812;2022-12-19T11:27:31;22.45;;;16.95;;
56331;SDS011;42237;53.340;6.812;2022-12-19T11:30:05;19.48;;;15.82;;
56331;SDS011;42237;53.340;6.812;2022-12-19T11:35:01;22.38;;;15.88;;
56331;SDS011;42237;53.340;6.812;2022-12-19T11:37:36;19.60;;;14.63;;
56331;SDS011;42237;53.340;6.812;2022-12-19T11:40:30;22.15;;;16.25;;
56331;SDS011;42237;53.340;6.812;2022-12-19T11:53:44;17.98;;;14.77;;
56331;SDS011;42237;53.340;6.812;2022-12-19T11:56:13;23.33;;;15.38;;
56331;SDS011;42237;53.340;6.812;2022-12-19T11:58:52;19.60;;;14.68;;
56331;SDS011;42237;53.340;6.812;2022-12-19T12:06:26;19.45;;;14.15;;
56331;SDS011;42237;53.340;6.812;2022-12-19T12:08:58;19.40;;;15.02;;
56331;SDS011;42237;53.340;6.812;2022-12-19T12:11:41;20.90;;;14.85;;
56331;SDS011;42237;53.340;6.812;2022-12-19T12:19:57;18.10;;;14.23;;
56331;SDS011;42237;53.340;6.812;2022-12-19T12:26:00;18.58;;;14.32;;
56331;SDS011;42237;53.340;6.812;2022-12-19T12:31:45;18.67;;;14.20;;
56331;SDS011;42237;53.340;6.812;2022-12-19T12:37:10;19.02;;;13.95;;
56331;SDS011;42237;53.340;6.812;2022-12-19T12:42:52;16.80;;;12.90;;
56331;SDS011;42237;53.340;6.812;2022-12-19T12:45:24;17.33;;;13.55;;
56331;SDS011;42237;53.340;6.812;2022-12-19T12:47:59;15.93;;;13.43;;
56331;SDS011;42237;53.340;6.812;2022-12-19T12:50:24;19.33;;;14.35;;
56331;SDS011;42237;53.340;6.812;2022-12-19T12:52:52;18.60;;;13.18;;
56331;SDS011;42237;53.340;6.812;2022-12-19T12:55:23;16.80;;;13.27;;
56331;SDS011;42237;53.340;6.812;2022-12-19T12:57:52;18.80;;;14.45;;
56331;SDS011;42237;53.340;6.812;2022-12-19T13:00:19;19.08;;;14.63;;
56331;SDS011;42237;53.340;6.812;2022-12-19T13:02:51;18.67;;;13.77;;
56331;SDS011;42237;53.340;6.812;2022-12-19T13:07:56;19.73;;;14.70;;
56331;SDS011;42237;53.340;6.812;2022-12-19T13:12:56;20.05;;;14.27;;
56331;SDS011;42237;53.340;6.812;2022-12-19T13:15:35;17.75;;;14.63;;
56331;SDS011;42237;53.340;6.812;2022-12-19T13:20:41;16.65;;;13.63;;
56331;SDS011;42237;53.340;6.812;2022-12-19T13:26:50;17.00;;;13.07;;
56331;SDS011;42237;53.340;6.812;2022-12-19T13:30:14;17.73;;;14.02;;
56331;SDS011;42237;53.340;6.812;2022-12-19T13:32:18;15.38;;;13.00;;
56331;SDS011;42237;53.340;6.812;2022-12-19T13:34:58;17.27;;;13.52;;
56331;SDS011;42237;53.340;6.812;2022-12-19T13:37:26;18.55;;;12.93;;
56331;SDS011;42237;53.340;6.812;2022-12-19T13:42:23;16.20;;;12.23;;
56331;SDS011;42237;53.340;6.812;2022-12-19T13:45:20;14.55;;;11.93;;
56331;SDS011;42237;53.340;6.812;2022-12-19T13:47:52;16.90;;;11.93;;
56331;SDS011;42237;53.340;6.812;2022-12-19T13:50:24;15.85;;;12.40;;
56331;SDS011;42237;53.340;6.812;2022-12-19T13:53:16;14.93;;;12.45;;
56331;SDS011;42237;53.340;6.812;2022-12-19T13:55:44;17.45;;;12.63;;
56331;SDS011;42237;53.340;6.812;2022-12-19T13:58:23;16.35;;;13.13;;
56331;SDS011;42237;53.340;6.812;2022-12-19T14:00:52;15.65;;;12.18;;
56331;SDS011;42237;53.340;6.812;2022-12-19T14:03:22;17.38;;;13.52;;
56331;SDS011;42237;53.340;6.812;2022-12-19T14:06:25;19.23;;;14.38;;
56331;SDS011;42237;53.340;6.812;2022-12-19T14:09:05;18.20;;;14.32;;
56331;SDS011;42237;53.340;6.812;2022-12-19T14:11:39;16.38;;;12.82;;
56331;SDS011;42237;53.340;6.812;2022-12-19T14:14:11;16.55;;;12.18;;
56331;SDS011;42237;53.340;6.812;2022-12-19T14:17:11;14.32;;;11.95;;
56331;SDS011;42237;53.340;6.812;2022-12-19T14:19:46;13.45;;;11.98;;
56331;SDS011;42237;53.340;6.812;2022-12-19T14:22:19;17.63;;;13.60;;
56331;SDS011;42237;53.340;6.812;2022-12-19T14:24:59;18.10;;;13.85;;
56331;SDS011;42237;53.340;6.812;2022-12-19T14:30:02;15.85;;;13.45;;
56331;SDS011;42237;53.340;6.812;2022-12-19T14:32:30;17.50;;;13.60;;
56331;SDS011;42237;53.340;6.812;2022-12-19T14:34:58;16.92;;;14.57;;
56331;SDS011;42237;53.340;6.812;2022-12-19T14:37:35;17.08;;;13.93;;
56331;SDS011;42237;53.340;6.812;2022-12-19T14:40:10;15.52;;;13.40;;
56331;SDS011;42237;53.340;6.812;2022-12-19T14:45:31;18.23;;;14.15;;
56331;SDS011;42237;53.340;6.812;2022-12-19T14:48:25;21.58;;;14.73;;
56331;SDS011;42237;53.340;6.812;2022-12-19T14:51:01;17.23;;;13.27;;
56331;SDS011;42237;53.340;6.812;2022-12-19T14:53:29;17.13;;;14.05;;
56331;SDS011;42237;53.340;6.812;2022-12-19T14:56:02;22.40;;;14.45;;
56331;SDS011;42237;53.340;6.812;2022-12-19T14:58:38;20.65;;;15.68;;
56331;SDS011;42237;53.340;6.812;2022-12-19T15:01:06;16.70;;;14.13;;
56331;SDS011;42237;53.340;6.812;2022-12-19T15:03:55;17.88;;;14.63;;
56331;SDS011;42237;53.340;6.812;2022-12-19T15:06:30;18.52;;;14.23;;
56331;SDS011;42237;53.340;6.812;2022-12-19T15:09:01;18.13;;;13.20;;
56331;SDS011;42237;53.340;6.812;2022-12-19T15:11:31;17.38;;;13.05;;
56331;SDS011;42237;53.340;6.812;2022-12-19T15:14:27;19.40;;;14.55;;
56331;SDS011;42237;53.340;6.812;2022-12-19T15:17:00;16.70;;;12.77;;
56331;SDS011;42237;53.340;6.812;2022-12-19T15:19:41;19.52;;;13.57;;
56331;SDS011;42237;53.340;6.812;2022-12-19T15:22:07;16.27;;;12.00;;
56331;SDS011;42237;53.340;6.812;2022-12-19T15:24:32;15.82;;;12.20;;
56331;SDS011;42237;53.340;6.812;2022-12-19T15:26:58;17.38;;;13.18;;
56331;SDS011;42237;53.340;6.812;2022-12-19T15:29:25;16.58;;;12.13;;
56331;SDS011;42237;53.340;6.812;2022-12-19T15:31:51;15.20;;;12.00;;
56331;SDS011;42237;53.340;6.812;2022-12-19T15:34:22;15.43;;;11.60;;
56331;SDS011;42237;53.340;6.812;2022-12-19T15:36:50;17.42;;;11.63;;
56331;SDS011;42237;53.340;6.812;2022-12-19T15:39:17;18.52;;;13.25;;
56331;SDS011;42237;53.340;6.812;2022-12-19T15:41:43;18.05;;;13.45;;
56331;SDS011;42237;53.340;6.812;2022-12-19T15:44:17;15.13;;;12.10;;
56331;SDS011;42237;53.340;6.812;2022-12-19T15:46:46;16.55;;;12.00;;
56331;SDS011;42237;53.340;6.812;2022-12-19T15:49:16;15.00;;;10.95;;
56331;SDS011;42237;53.340;6.812;2022-12-19T15:51:44;14.90;;;11.18;;
56331;SDS011;42237;53.340;6.812;2022-12-19T15:54:10;13.25;;;10.82;;
56331;SDS011;42237;53.340;6.812;2022-12-19T15:56:37;14.02;;;11.32;;
56331;SDS011;42237;53.340;6.812;2022-12-19T16:01:54;18.75;;;12.35;;
56331;SDS011;42237;53.340;6.812;2022-12-19T16:04:21;15.85;;;12.27;;
56331;SDS011;42237;53.340;6.812;2022-12-19T16:06:48;18.25;;;11.73;;
56331;SDS011;42237;53.340;6.812;2022-12-19T16:11:45;20.55;;;12.20;;
56331;SDS011;42237;53.340;6.812;2022-12-19T16:14:12;12.73;;;10.55;;
56331;SDS011;42237;53.340;6.812;2022-12-19T16:16:38;15.18;;;11.32;;
56331;SDS011;42237;53.340;6.812;2022-12-19T16:19:13;12.55;;;9.93;;
56331;SDS011;42237;53.340;6.812;2022-12-19T16:21:50;14.82;;;10.73;;
56331;SDS011;42237;53.340;6.812;2022-12-19T16:24:17;15.50;;;10.23;;
56331;SDS011;42237;53.340;6.812;2022-12-19T16:26:42;16.42;;;10.85;;
56331;SDS011;42237;53.340;6.812;2022-12-19T16:29:19;14.82;;;10.93;;
56331;SDS011;42237;53.340;6.812;2022-12-19T16:31:47;15.95;;;12.25;;
56331;SDS011;42237;53.340;6.812;2022-12-19T16:34:14;20.38;;;13.32;;
56331;SDS011;42237;53.340;6.812;2022-12-19T16:36:42;19.85;;;13.43;;
56331;SDS011;42237;53.340;6.812;2022-12-19T16:39:08;17.52;;;12.25;;
56331;SDS011;42237;53.340;6.812;2022-12-19T16:41:34;17.38;;;11.57;;
56331;SDS011;42237;53.340;6.812;2022-12-19T16:44:00;13.80;;;11.65;;
56331;SDS011;42237;53.340;6.812;2022-12-19T16:46:26;14.88;;;11.35;;